Time;durP1;ratioP1;P1;durP2;ratioP2;P2;SDS_P1;SDS_P2;PMS_P1;PMS_P2;Temp;Humidity;BMP_temperature;BMP_pressure;BME280_temperature;BME280_humidity;BME280_pressure;Samples;Min_cycle;Max_cycle;Signal;HPM_P1;HPM_P2
2022/06/17 00:00:44;;;;;;;;;;;;;;;;;;2073314;28;19913;-80
2022/06/17 00:01:44;;;;;;;;;;;;;;;;;;2073825;28;20188;-80
2022/06/17 00:02:44;;;;;;;;;;;;;;;;;;2073304;28;20398;-80
2022/06/17 00:03:45;;;;;;;;;;;;;;;;;;2073152;28;19948;-80
2022/06/17 00:04:47;;;;;;;;;;;;;;;;;;2072910;28;19917;-80
2022/06/17 00:05:47;;;;;;;;;;;;;;;;;;2073226;28;19917;-80
2022/06/17 00:06:51;;;;;;;;;;;;;;;;;;2073739;28;20314;-80
2022/06/17 00:07:52;;;;;;;;;;;;;;;;;;2073612;28;19925;-80
2022/06/17 00:08:53;;;;;;;;;;;;;;;;;;2073101;28;19957;-81
2022/06/17 00:09:53;;;;;;;;;;;;;;;;;;2072950;28;19940;-80
2022/06/17 00:10:56;;;;;;;;;;;;;;;;;;2073581;28;19976;-80
2022/06/17 00:11:56;;;;;;;;;;;;;;;;;;2073009;28;19913;-80
2022/06/17 00:12:56;;;;;;;;;;;;;;;;;;2073154;28;20016;-79
2022/06/17 00:13:56;;;;;;;;;;;;;;;;;;2073459;28;19973;-80
2022/06/17 00:15:12;;;;;;;;;;;;;;;;;;2073521;28;19952;-80
2022/06/17 00:16:13;;;;;;;;;;;;;;;;;;2073504;28;19914;-79
2022/06/17 00:17:13;;;;;;;;;;;;;;;;;;2073658;28;19913;-80
2022/06/17 00:18:16;;;;;;;;;;;;;;;;;;2073533;28;20373;-79
2022/06/17 00:19:18;;;;;;;;;;;;;;;;;;2076455;28;20366;-79
2022/06/17 00:20:20;;;;;;;;;;;;;;;;;;2073555;28;19973;-79
2022/06/17 00:21:23;;;;;;;;;;;;;;;;;;2073242;28;19917;-80
2022/06/17 00:22:25;;;;;;;;;;;;;;;;;;2073211;28;19955;-80
2022/06/17 00:23:27;;;;;;;;;;;;;;;;;;2073268;28;20008;-80
2022/06/17 00:24:30;;;;;;;;;;;;;;;;;;2073195;28;19913;-80
2022/06/17 00:25:32;;;;;;;;;;;;;;;;;;2073796;28;19920;-79
2022/06/17 00:26:32;;;;;;;;;;;;;;;;;;2073692;28;20274;-80
2022/06/17 00:27:32;;;;;;;;;;;;;;;;;;2073462;28;19919;-80
2022/06/17 00:28:33;;;;;;;;;;;;;;;;;;2073548;28;19924;-80
2022/06/17 00:29:33;;;;;;;;;;;;;;;;;;2073437;28;19913;-80
2022/06/17 00:30:33;;;;;;;;;;;;;;;;;;2073523;28;20015;-79
2022/06/17 00:31:34;;;;;;;;;;;;;;;;;;2073410;28;20354;-79
2022/06/17 00:32:34;;;;;;;;;;;;;;;;;;2073445;28;19913;-80
2022/06/17 00:33:34;;;;;;;;;;;;;;;;;;2073462;28;20278;-79
2022/06/17 00:34:37;;;;;;;;;;;;;;;;;;2073426;28;19913;-80
2022/06/17 00:35:45;;;;;;;;;;;;;;;;;;2073624;28;19918;-79
2022/06/17 00:36:47;;;;;;;;;;;;;;;;;;2073077;28;20005;-80
2022/06/17 00:37:48;;;;;;;;;;;;;;;;;;2064995;28;19917;-79
2022/06/17 00:38:49;;;;;;;;;;;;;;;;;;2072928;28;19917;-80
2022/06/17 00:39:49;;;;;;;;;;;;;;;;;;2073332;28;19956;-80
2022/06/17 00:40:50;;;;;;;;;;;;;;;;;;2073515;28;19913;-80
2022/06/17 00:41:54;;;;;;;;;;;;;;;;;;2073398;28;19913;-80
2022/06/17 00:42:54;;;;;;;;;;;;;;;;;;2073440;28;20021;-80
2022/06/17 00:43:55;;;;;;;;;;;;;;;;;;2073478;28;19960;-80
2022/06/17 00:44:55;;;;;;;;;;;;;;;;;;2073514;28;19924;-80
2022/06/17 00:46:10;;;;;;;;;;;;;;;;;;2073489;28;19924;-80
2022/06/17 00:47:19;;;;;;;;;;;;;;;;;;2072904;28;20405;-80
2022/06/17 00:48:22;;;;;;;;;;;;;;;;;;2073144;28;19956;-79
2022/06/17 00:49:41;;;;;;;;;;;;;;;;;;2073357;28;19914;-81
2022/06/17 00:50:46;;;;;;;;;;;;;;;;;;2072869;28;19913;-80
2022/06/17 00:51:57;;;;;;;;;;;;;;;;;;2072882;28;20376;-80
2022/06/17 00:53:06;;;;;;;;;;;;;;;;;;2073319;28;19995;-80
2022/06/17 00:54:25;;;;;;;;;;;;;;;;;;2073333;28;19924;-80
2022/06/17 00:55:29;;;;;;;;;;;;;;;;;;2073412;28;19924;-80
2022/06/17 00:56:31;;;;;;;;;;;;;;;;;;2073362;28;19913;-80
2022/06/17 00:57:37;;;;;;;;;;;;;;;;;;2073267;28;19925;-80
2022/06/17 00:58:56;;;;;;;;;;;;;;;;;;2073564;28;20059;-79
2022/06/17 01:00:17;;;;;;;;;;;;;;;;;;2073266;28;19913;-80
2022/06/17 01:01:17;;;;;;;;;;;;;;;;;;2076080;28;19926;-80
2022/06/17 01:02:17;;;;;;;;;;;;;;;;;;2073365;28;20263;-80
2022/06/17 01:03:20;;;;;;;;;;;;;;;;;;2072900;28;20255;-79
2022/06/17 01:04:21;;;;;;;;;;;;;;;;;;2072778;28;20001;-80
2022/06/17 01:05:25;;;;;;;;;;;;;;;;;;2073371;28;19913;-80
2022/06/17 01:06:30;;;;;;;;;;;;;;;;;;2073295;28;20024;-79
2022/06/17 01:07:38;;;;;;;;;;;;;;;;;;2073329;28;19953;-79
2022/06/17 01:10:09;;;;;;;;;;;;;;;;;;2073198;28;19913;-79
2022/06/17 01:11:11;;;;;;;;;;;;;;;;;;2073419;28;19914;-80
2022/06/17 01:12:13;;;;;;;;;;;;;;;;;;2073363;28;19914;-80
2022/06/17 01:13:13;;;;;;;;;;;;;;;;;;2072838;28;19924;-79
2022/06/17 01:14:15;;;;;;;;;;;;;;;;;;2073000;28;19921;-79
2022/06/17 01:15:19;;;;;;;;;;;;;;;;;;2072839;28;20414;-79
2022/06/17 01:16:22;;;;;;;;;;;;;;;;;;2072905;28;19924;-80
2022/06/17 01:17:24;;;;;;;;;;;;;;;;;;2072736;28;20338;-80
2022/06/17 01:18:24;;;;;;;;;;;;;;;;;;2072820;28;19913;-79
2022/06/17 01:19:24;;;;;;;;;;;;;;;;;;2073314;28;19913;-80
2022/06/17 01:20:26;;;;;;;;;;;;;;;;;;2073212;28;19917;-80
2022/06/17 01:21:35;;;;;;;;;;;;;;;;;;2073603;28;19913;-80
2022/06/17 01:22:43;;;;;;;;;;;;;;;;;;2074782;28;19925;-79
2022/06/17 01:23:48;;;;;;;;;;;;;;;;;;2074702;28;19913;-80
2022/06/17 01:24:49;;;;;;;;;;;;;;;;;;2074205;28;19917;-79
2022/06/17 01:25:49;;;;;;;;;;;;;;;;;;2074278;28;19914;-79
2022/06/17 01:26:50;;;;;;;;;;;;;;;;;;2074733;28;20410;-80
2022/06/17 01:27:52;;;;;;;;;;;;;;;;;;2074664;28;19914;-79
2022/06/17 01:28:54;;;;;;;;;;;;;;;;;;2074554;28;19917;-79
2022/06/17 01:29:55;;;;;;;;;;;;;;;;;;2074692;28;20323;-80
2022/06/17 01:30:59;;;;;;;;;;;;;;;;;;2074671;28;19980;-80
2022/06/17 01:32:00;;;;;;;;;;;;;;;;;;2074707;28;19923;-80
2022/06/17 01:33:03;;;;;;;;;;;;;;;;;;2074715;28;19913;-81
2022/06/17 01:34:04;;;;;;;;;;;;;;;;;;2074565;28;19913;-81
2022/06/17 01:35:05;;;;;;;;;;;;;;;;;;2074658;28;20069;-80
2022/06/17 01:36:05;;;;;;;;;;;;;;;;;;2074473;28;19913;-80
2022/06/17 01:37:06;;;;;;;;;;;;;;;;;;2074576;28;19923;-80
2022/06/17 01:38:07;;;;;;;;;;;;;;;;;;2074478;28;19929;-80
2022/06/17 01:39:07;;;;;;;;;;;;;;;;;;2074019;28;20425;-80
2022/06/17 01:40:08;;;;;;;;;;;;;;;;;;2074067;28;19918;-80
2022/06/17 01:41:09;;;;;;;;;;;;;;;;;;2074632;28;20432;-78
2022/06/17 01:42:10;;;;;;;;;;;;;;;;;;2074497;28;19923;-79
2022/06/17 01:43:11;;;;;;;;;;;;;;;;;;2073981;28;20016;-79
2022/06/17 01:44:26;;;;;;;;;;;;;;;;;;2074251;28;19951;-80
2022/06/17 01:45:26;;;;;;;;;;;;;;;;;;2074107;28;20347;-79
2022/06/17 01:46:31;;;;;;;;;;;;;;;;;;2074172;28;19925;-79
2022/06/17 01:47:31;;;;;;;;;;;;;;;;;;2074626;28;19914;-80
2022/06/17 01:48:33;;;;;;;;;;;;;;;;;;2074413;28;19914;-79
2022/06/17 01:49:35;;;;;;;;;;;;;;;;;;2074594;28;20020;-79
2022/06/17 01:50:36;;;;;;;;;;;;;;;;;;2074442;28;19972;-79
2022/06/17 01:51:38;;;;;;;;;;;;;;;;;;2074456;28;20333;-79
2022/06/17 01:52:45;;;;;;;;;;;;;;;;;;2074544;28;20286;-80
2022/06/17 01:53:48;;;;;;;;;;;;;;;;;;2074415;28;20329;-79
2022/06/17 01:54:51;;;;;;;;;;;;;;;;;;2074387;28;20343;-79
2022/06/17 01:55:53;;;;;;;;;;;;;;;;;;2074419;28;19914;-80
2022/06/17 01:56:55;;;;;;;;;;;;;;;;;;2073778;28;19987;-80
2022/06/17 01:58:14;;;;;;;;;;;;;;;;;;2074025;28;20004;-80
2022/06/17 01:59:20;;;;;;;;;;;;;;;;;;2074379;28;20322;-79
2022/06/17 02:00:22;;;;;;;;;;;;;;;;;;2074366;28;19918;-80
2022/06/17 02:01:27;;;;;;;;;;;;;;;;;;2074544;28;19979;-80
2022/06/17 02:02:29;;;;;;;;;;;;;;;;;;2074607;28;19928;-80
2022/06/17 02:03:35;;;;;;;;;;;;;;;;;;2074248;28;19917;-79
2022/06/17 02:04:39;;;;;;;;;;;;;;;;;;2073794;28;19923;-79
2022/06/17 02:05:46;;;;;;;;;;;;;;;;;;2073937;28;19920;-79
2022/06/17 02:06:49;;;;;;;;;;;;;;;;;;2077099;28;19913;-79
2022/06/17 02:07:55;;;;;;;;;;;;;;;;;;2074508;28;19914;-80
2022/06/17 02:08:55;;;;;;;;;;;;;;;;;;2074496;28;20363;-80
2022/06/17 02:09:56;;;;;;;;;;;;;;;;;;2074344;28;19913;-79
2022/06/17 02:10:56;;;;;;;;;;;;;;;;;;2074502;28;19918;-81
2022/06/17 02:11:58;;;;;;;;;;;;;;;;;;2073801;28;19924;-80
2022/06/17 02:13:00;;;;;;;;;;;;;;;;;;2065764;28;19925;-80
2022/06/17 02:14:06;;;;;;;;;;;;;;;;;;2065783;28;19914;-80
2022/06/17 02:15:08;;;;;;;;;;;;;;;;;;2076678;28;20383;-80
2022/06/17 02:16:10;;;;;;;;;;;;;;;;;;2074230;28;19918;-79
2022/06/17 02:17:11;;;;;;;;;;;;;;;;;;2073672;28;20198;-79
2022/06/17 02:18:14;;;;;;;;;;;;;;;;;;2073480;28;20260;-80
2022/06/17 02:19:14;;;;;;;;;;;;;;;;;;2074172;28;19955;-80
2022/06/17 02:20:17;;;;;;;;;;;;;;;;;;2073616;28;20297;-80
2022/06/17 02:21:22;;;;;;;;;;;;;;;;;;2066136;28;20404;-80
2022/06/17 02:22:25;;;;;;;;;;;;;;;;;;2073757;28;19992;-80
2022/06/17 02:23:26;;;;;;;;;;;;;;;;;;2074127;28;19914;-80
2022/06/17 02:24:26;;;;;;;;;;;;;;;;;;2074138;28;19972;-80
2022/06/17 02:25:29;;;;;;;;;;;;;;;;;;2074169;28;20237;-80
2022/06/17 02:26:31;;;;;;;;;;;;;;;;;;2074112;28;20255;-80
2022/06/17 02:27:32;;;;;;;;;;;;;;;;;;2073973;28;19918;-80
2022/06/17 02:28:34;;;;;;;;;;;;;;;;;;2074066;28;19914;-80
2022/06/17 02:29:35;;;;;;;;;;;;;;;;;;2073577;28;19984;-80
2022/06/17 02:30:36;;;;;;;;;;;;;;;;;;2073451;28;20381;-80
2022/06/17 02:31:38;;;;;;;;;;;;;;;;;;2074098;28;19918;-80
2022/06/17 02:32:39;;;;;;;;;;;;;;;;;;2074001;28;19922;-80
2022/06/17 02:33:43;;;;;;;;;;;;;;;;;;2074098;28;19918;-80
2022/06/17 02:35:04;;;;;;;;;;;;;;;;;;2074042;28;20021;-80
2022/06/17 02:36:07;;;;;;;;;;;;;;;;;;2073495;28;19913;-80
2022/06/17 02:37:11;;;;;;;;;;;;;;;;;;2073329;28;19953;-80
2022/06/17 02:38:19;;;;;;;;;;;;;;;;;;2065806;28;20065;-80
2022/06/17 02:39:19;;;;;;;;;;;;;;;;;;2073840;28;19913;-80
2022/06/17 02:40:32;;;;;;;;;;;;;;;;;;2073937;28;20342;-80
2022/06/17 02:41:32;;;;;;;;;;;;;;;;;;2074195;28;19914;-80
2022/06/17 02:42:35;;;;;;;;;;;;;;;;;;2074088;28;20287;-80
2022/06/17 02:43:43;;;;;;;;;;;;;;;;;;2074113;28;20441;-80
2022/06/17 02:44:44;;;;;;;;;;;;;;;;;;2073959;28;19917;-80
2022/06/17 02:45:49;;;;;;;;;;;;;;;;;;2073908;28;19913;-80
2022/06/17 02:46:52;;;;;;;;;;;;;;;;;;2074039;28;19913;-80
2022/06/17 02:47:53;;;;;;;;;;;;;;;;;;2073851;28;19924;-79
2022/06/17 02:48:59;;;;;;;;;;;;;;;;;;2073764;28;20008;-80
2022/06/17 02:49:59;;;;;;;;;;;;;;;;;;2073872;28;19921;-79
2022/06/17 02:51:03;;;;;;;;;;;;;;;;;;2073856;28;20012;-79
2022/06/17 02:52:06;;;;;;;;;;;;;;;;;;2073528;28;20382;-79
2022/06/17 02:53:08;;;;;;;;;;;;;;;;;;2073490;28;19940;-79
2022/06/17 02:54:10;;;;;;;;;;;;;;;;;;2074052;28;19921;-79
2022/06/17 02:55:31;;;;;;;;;;;;;;;;;;2073829;28;19913;-80
2022/06/17 02:56:35;;;;;;;;;;;;;;;;;;2060156;28;20421;-80
2022/06/17 02:57:35;;;;;;;;;;;;;;;;;;2074046;28;20386;-80
2022/06/17 02:58:35;;;;;;;;;;;;;;;;;;2073527;28;19913;-79
2022/06/17 02:59:38;;;;;;;;;;;;;;;;;;2073546;28;19914;-80
2022/06/17 03:00:38;;;;;;;;;;;;;;;;;;2074046;28;19921;-80
2022/06/17 03:01:40;;;;;;;;;;;;;;;;;;2073331;28;19923;-80
2022/06/17 03:02:43;;;;;;;;;;;;;;;;;;2073325;28;20374;-80
2022/06/17 03:03:44;;;;;;;;;;;;;;;;;;2073443;28;19959;-80
2022/06/17 03:04:45;;;;;;;;;;;;;;;;;;2065483;28;20294;-80
2022/06/17 03:05:46;;;;;;;;;;;;;;;;;;2073606;28;19928;-81
2022/06/17 03:06:47;;;;;;;;;;;;;;;;;;2074099;28;20342;-80
2022/06/17 03:07:50;;;;;;;;;;;;;;;;;;2073871;28;19913;-80
2022/06/17 03:08:54;;;;;;;;;;;;;;;;;;2073360;28;20351;-80
2022/06/17 03:09:54;;;;;;;;;;;;;;;;;;2065669;28;19957;-80
2022/06/17 03:10:56;;;;;;;;;;;;;;;;;;2073621;28;19917;-80
2022/06/17 03:11:58;;;;;;;;;;;;;;;;;;2073417;28;19928;-80
2022/06/17 03:13:01;;;;;;;;;;;;;;;;;;2073379;28;19928;-80
2022/06/17 03:14:04;;;;;;;;;;;;;;;;;;2073433;28;20313;-80
2022/06/17 03:15:07;;;;;;;;;;;;;;;;;;2073339;28;19921;-80
2022/06/17 03:16:10;;;;;;;;;;;;;;;;;;2073332;28;19921;-80
2022/06/17 03:17:13;;;;;;;;;;;;;;;;;;2065469;28;19913;-80
2022/06/17 03:18:16;;;;;;;;;;;;;;;;;;2073181;28;19917;-80
2022/06/17 03:19:16;;;;;;;;;;;;;;;;;;2076017;28;19948;-80
2022/06/17 03:20:22;;;;;;;;;;;;;;;;;;2073845;28;19917;-80
2022/06/17 03:21:23;;;;;;;;;;;;;;;;;;2073894;28;19909;-80
2022/06/17 03:22:24;;;;;;;;;;;;;;;;;;2073479;28;19923;-80
2022/06/17 03:23:29;;;;;;;;;;;;;;;;;;2073144;28;19914;-78
2022/06/17 03:24:42;;;;;;;;;;;;;;;;;;2073319;28;19941;-79
2022/06/17 03:25:52;;;;;;;;;;;;;;;;;;2073639;28;19917;-79
2022/06/17 03:27:02;;;;;;;;;;;;;;;;;;2073672;28;20116;-79
2022/06/17 03:28:06;;;;;;;;;;;;;;;;;;2073233;28;19992;-79
2022/06/17 03:29:07;;;;;;;;;;;;;;;;;;2065341;28;20437;-79
2022/06/17 03:30:09;;;;;;;;;;;;;;;;;;2065394;28;19918;-79
2022/06/17 03:31:13;;;;;;;;;;;;;;;;;;2073138;28;19925;-79
2022/06/17 03:32:16;;;;;;;;;;;;;;;;;;2073757;28;20302;-79
2022/06/17 03:33:18;;;;;;;;;;;;;;;;;;2073825;28;19925;-79
2022/06/17 03:34:21;;;;;;;;;;;;;;;;;;2073160;28;20114;-79
2022/06/17 03:35:24;;;;;;;;;;;;;;;;;;2065076;28;19914;-79
2022/06/17 03:36:28;;;;;;;;;;;;;;;;;;2073401;28;19914;-79
2022/06/17 03:37:39;;;;;;;;;;;;;;;;;;2073707;28;19917;-80
2022/06/17 03:38:39;;;;;;;;;;;;;;;;;;2076363;28;20004;-79
2022/06/17 03:39:58;;;;;;;;;;;;;;;;;;2073108;28;19914;-79
2022/06/17 03:41:02;;;;;;;;;;;;;;;;;;2073323;28;20019;-79
2022/06/17 03:42:17;;;;;;;;;;;;;;;;;;2073009;28;19926;-78
2022/06/17 03:43:27;;;;;;;;;;;;;;;;;;2073258;28;19949;-80
2022/06/17 03:44:32;;;;;;;;;;;;;;;;;;2073073;28;19922;-80
2022/06/17 03:45:44;;;;;;;;;;;;;;;;;;2072930;28;20327;-80
2022/06/17 03:46:51;;;;;;;;;;;;;;;;;;2066580;28;19917;-79
2022/06/17 03:47:54;;;;;;;;;;;;;;;;;;2073003;28;19918;-79
2022/06/17 03:49:01;;;;;;;;;;;;;;;;;;2072828;28;20342;-79
2022/06/17 03:50:05;;;;;;;;;;;;;;;;;;2074144;28;19949;-79
2022/06/17 03:51:10;;;;;;;;;;;;;;;;;;2072995;28;20378;-79
2022/06/17 03:52:29;;;;;;;;;;;;;;;;;;2073059;28;19917;-79
2022/06/17 03:53:31;;;;;;;;;;;;;;;;;;2073035;28;19918;-79
2022/06/17 03:54:31;;;;;;;;;;;;;;;;;;2064910;28;19918;-81
2022/06/17 03:55:32;;;;;;;;;;;;;;;;;;2073054;28;19925;-79
2022/06/17 03:56:34;;;;;;;;;;;;;;;;;;2073567;28;19917;-80
2022/06/17 03:57:35;;;;;;;;;;;;;;;;;;2073518;28;20008;-78
2022/06/17 03:58:37;;;;;;;;;;;;;;;;;;2073596;28;19913;-81
2022/06/17 03:59:40;;;;;;;;;;;;;;;;;;2072880;28;19914;-80
2022/06/17 04:00:40;;;;;;;;;;;;;;;;;;2064960;28;19924;-80
2022/06/17 04:01:43;;;;;;;;;;;;;;;;;;2073193;28;19925;-78
2022/06/17 04:02:47;;;;;;;;;;;;;;;;;;2073492;28;19925;-80
2022/06/17 04:03:56;;;;;;;;;;;;;;;;;;2073472;28;20277;-78
2022/06/17 04:04:57;;;;;;;;;;;;;;;;;;2073536;28;19913;-80
2022/06/17 04:05:59;;;;;;;;;;;;;;;;;;2073669;28;19913;-81
2022/06/17 04:07:00;;;;;;;;;;;;;;;;;;2072972;28;20279;-80
2022/06/17 04:08:00;;;;;;;;;;;;;;;;;;2064880;28;19914;-80
2022/06/17 04:09:00;;;;;;;;;;;;;;;;;;2072857;28;19957;-79
2022/06/17 04:10:01;;;;;;;;;;;;;;;;;;2072853;28;19959;-80
2022/06/17 04:11:01;;;;;;;;;;;;;;;;;;2073162;28;20019;-80
2022/06/17 04:12:14;;;;;;;;;;;;;;;;;;2073677;28;19975;-79
2022/06/17 04:13:16;;;;;;;;;;;;;;;;;;2073396;28;20286;-80
2022/06/17 04:14:21;;;;;;;;;;;;;;;;;;2073162;28;19990;-78
2022/06/17 04:15:25;;;;;;;;;;;;;;;;;;2073177;28;19925;-80
2022/06/17 04:16:45;;;;;;;;;;;;;;;;;;2073636;28;19914;-78
2022/06/17 04:17:51;;;;;;;;;;;;;;;;;;2073505;28;19914;-80
2022/06/17 04:18:52;;;;;;;;;;;;;;;;;;2072801;28;19983;-80
2022/06/17 04:20:01;;;;;;;;;;;;;;;;;;2073301;28;20064;-81
2022/06/17 04:21:04;;;;;;;;;;;;;;;;;;2068354;28;20011;-80
2022/06/17 04:22:14;;;;;;;;;;;;;;;;;;2065684;28;20363;-80
2022/06/17 04:23:19;;;;;;;;;;;;;;;;;;2066105;28;19932;-80
2022/06/17 04:24:22;;;;;;;;;;;;;;;;;;2067740;28;20024;-80
2022/06/17 04:25:31;;;;;;;;;;;;;;;;;;2065205;28;19917;-80
2022/06/17 04:26:33;;;;;;;;;;;;;;;;;;2065401;28;19928;-80
2022/06/17 04:28:55;;;;;;;;;;;;;;;;;;2070365;28;19913;-80
2022/06/17 04:29:56;;;;;;;;;;;;;;;;;;2066113;28;19918;-80
2022/06/17 04:30:58;;;;;;;;;;;;;;;;;;2069125;28;20013;-80
2022/06/17 04:32:01;;;;;;;;;;;;;;;;;;2065560;28;19917;-81
2022/06/17 04:33:07;;;;;;;;;;;;;;;;;;2067986;28;20377;-80
2022/06/17 04:34:13;;;;;;;;;;;;;;;;;;2067078;28;19922;-80
2022/06/17 04:35:13;;;;;;;;;;;;;;;;;;2069631;28;19914;-80
2022/06/17 04:36:28;;;;;;;;;;;;;;;;;;2067259;28;19952;-80
2022/06/17 04:37:29;;;;;;;;;;;;;;;;;;2062117;28;19918;-80
2022/06/17 04:38:32;;;;;;;;;;;;;;;;;;2064580;28;19914;-80
2022/06/17 04:39:43;;;;;;;;;;;;;;;;;;2069248;28;20351;-84
2022/06/17 04:40:54;;;;;;;;;;;;;;;;;;2068974;28;20405;-82
2022/06/17 04:41:55;;;;;;;;;;;;;;;;;;2069524;28;20435;-81
2022/06/17 04:42:59;;;;;;;;;;;;;;;;;;2068265;28;19971;-82
2022/06/17 04:44:03;;;;;;;;;;;;;;;;;;2067051;28;20306;-82
2022/06/17 04:45:04;;;;;;;;;;;;;;;;;;2064876;28;20298;-80
2022/06/17 04:46:10;;;;;;;;;;;;;;;;;;2064796;28;20004;-81
2022/06/17 04:47:15;;;;;;;;;;;;;;;;;;2065345;28;19968;-83
2022/06/17 04:48:15;;;;;;;;;;;;;;;;;;2065219;28;19914;-82
2022/06/17 04:49:20;;;;;;;;;;;;;;;;;;2064678;28;20015;-80
2022/06/17 04:50:22;;;;;;;;;;;;;;;;;;2064745;28;19917;-81
2022/06/17 04:51:28;;;;;;;;;;;;;;;;;;2065416;28;19938;-81
2022/06/17 04:52:34;;;;;;;;;;;;;;;;;;2064550;28;19918;-80
2022/06/17 04:53:35;;;;;;;;;;;;;;;;;;2064972;28;20434;-80
2022/06/17 04:54:37;;;;;;;;;;;;;;;;;;2065074;28;19922;-80
2022/06/17 04:55:39;;;;;;;;;;;;;;;;;;2064846;28;20004;-81
2022/06/17 04:56:45;;;;;;;;;;;;;;;;;;2065401;28;19914;-80
2022/06/17 04:57:47;;;;;;;;;;;;;;;;;;2066845;28;19929;-80
2022/06/17 04:58:47;;;;;;;;;;;;;;;;;;2066585;28;20326;-80
2022/06/17 04:59:48;;;;;;;;;;;;;;;;;;2066436;28;19932;-80
2022/06/17 05:00:50;;;;;;;;;;;;;;;;;;2066178;28;20005;-80
2022/06/17 05:01:51;;;;;;;;;;;;;;;;;;2066324;28;19968;-79
2022/06/17 05:02:52;;;;;;;;;;;;;;;;;;2065568;28;20019;-80
2022/06/17 05:03:57;;;;;;;;;;;;;;;;;;2065616;28;20317;-81
2022/06/17 05:04:59;;;;;;;;;;;;;;;;;;2065604;28;19914;-81
2022/06/17 05:06:07;;;;;;;;;;;;;;;;;;2057848;28;19914;-81
2022/06/17 05:07:07;;;;;;;;;;;;;;;;;;2067387;28;19914;-81
2022/06/17 05:08:14;;;;;;;;;;;;;;;;;;2066228;28;19917;-81
2022/06/17 05:09:20;;;;;;;;;;;;;;;;;;2065719;28;20437;-81
2022/06/17 05:10:39;;;;;;;;;;;;;;;;;;2065711;28;19924;-81
2022/06/17 05:12:05;;;;;;;;;;;;;;;;;;2066062;28;19914;-81
2022/06/17 05:13:22;;;;;;;;;;;;;;;;;;2064442;28;19913;-81
2022/06/17 05:14:36;;;;;;;;;;;;;;;;;;2064620;28;19914;-81
2022/06/17 05:15:37;;;;;;;;;;;;;;;;;;2064957;28;19918;-81
2022/06/17 05:16:37;;;;;;;;;;;;;;;;;;2065933;28;20001;-81
2022/06/17 05:17:40;;;;;;;;;;;;;;;;;;2066072;28;19925;-81
2022/06/17 05:18:41;;;;;;;;;;;;;;;;;;2066640;28;19918;-81
2022/06/17 05:19:44;;;;;;;;;;;;;;;;;;2066800;28;20367;-79
2022/06/17 05:20:45;;;;;;;;;;;;;;;;;;2066777;28;19925;-81
2022/06/17 05:21:45;;;;;;;;;;;;;;;;;;2066556;28;19953;-81
2022/06/17 05:22:48;;;;;;;;;;;;;;;;;;2066911;28;19913;-81
2022/06/17 05:23:50;;;;;;;;;;;;;;;;;;2067051;28;19941;-81
2022/06/17 05:24:50;;;;;;;;;;;;;;;;;;2066904;28;19976;-80
2022/06/17 05:25:51;;;;;;;;;;;;;;;;;;2066733;28;19922;-82
2022/06/17 05:26:51;;;;;;;;;;;;;;;;;;2066754;28;19914;-81
2022/06/17 05:27:51;;;;;;;;;;;;;;;;;;2066756;28;20401;-83
2022/06/17 05:28:52;;;;;;;;;;;;;;;;;;2066078;28;20008;-81
2022/06/17 05:29:52;;;;;;;;;;;;;;;;;;2066333;28;19922;-81
2022/06/17 05:30:55;;;;;;;;;;;;;;;;;;2066790;28;19914;-79
2022/06/17 05:31:55;;;;;;;;;;;;;;;;;;2066234;28;20034;-79
2022/06/17 05:32:55;;;;;;;;;;;;;;;;;;2058207;28;19914;-80
2022/06/17 05:33:56;;;;;;;;;;;;;;;;;;2066072;28;20347;-80
2022/06/17 05:34:56;;;;;;;;;;;;;;;;;;2066857;28;19914;-81
2022/06/17 05:35:56;;;;;;;;;;;;;;;;;;2066456;28;20010;-80
2022/06/17 05:36:57;;;;;;;;;;;;;;;;;;2066389;28;19941;-81
2022/06/17 05:37:57;;;;;;;;;;;;;;;;;;2066775;28;19914;-83
2022/06/17 05:38:57;;;;;;;;;;;;;;;;;;2066058;28;19980;-85
2022/06/17 05:39:58;;;;;;;;;;;;;;;;;;2066288;28;20359;-80
2022/06/17 05:40:58;;;;;;;;;;;;;;;;;;2066452;28;19926;-83
2022/06/17 05:42:00;;;;;;;;;;;;;;;;;;2066486;28;19922;-81
2022/06/17 05:43:01;;;;;;;;;;;;;;;;;;2066740;28;19914;-82
2022/06/17 05:44:01;;;;;;;;;;;;;;;;;;2066610;28;20405;-85
2022/06/17 05:45:04;;;;;;;;;;;;;;;;;;2066564;28;19925;-84
2022/06/17 05:46:05;;;;;;;;;;;;;;;;;;2066735;28;19954;-82
2022/06/17 05:47:05;;;;;;;;;;;;;;;;;;2066435;28;20390;-82
2022/06/17 05:48:10;;;;;;;;;;;;;;;;;;2066786;28;19914;-83
2022/06/17 05:49:11;;;;;;;;;;;;;;;;;;2065797;28;19914;-80
2022/06/17 05:50:12;;;;;;;;;;;;;;;;;;2066010;28;20294;-81
2022/06/17 05:51:12;;;;;;;;;;;;;;;;;;2066361;28;19949;-82
2022/06/17 05:52:12;;;;;;;;;;;;;;;;;;2066500;28;19914;-82
2022/06/17 05:53:13;;;;;;;;;;;;;;;;;;2066322;28;20272;-81
2022/06/17 05:54:14;;;;;;;;;;;;;;;;;;2066339;28;19956;-81
2022/06/17 05:55:14;;;;;;;;;;;;;;;;;;2066457;28;20291;-81
2022/06/17 05:56:14;;;;;;;;;;;;;;;;;;2066665;28;19929;-83
2022/06/17 05:57:16;;;;;;;;;;;;;;;;;;2065966;28;19913;-83
2022/06/17 05:58:16;;;;;;;;;;;;;;;;;;2065686;28;19941;-81
2022/06/17 05:59:17;;;;;;;;;;;;;;;;;;2066423;28;20363;-80
2022/06/17 06:00:18;;;;;;;;;;;;;;;;;;2066430;28;20390;-81
2022/06/17 06:01:18;;;;;;;;;;;;;;;;;;2066143;28;19949;-82
2022/06/17 06:02:18;;;;;;;;;;;;;;;;;;2066309;28;19925;-82
2022/06/17 06:03:20;;;;;;;;;;;;;;;;;;2066548;28;20337;-83
2022/06/17 06:04:21;;;;;;;;;;;;;;;;;;2066567;28;19918;-83
2022/06/17 06:05:22;;;;;;;;;;;;;;;;;;2066522;28;20072;-82
2022/06/17 06:06:23;;;;;;;;;;;;;;;;;;2066405;28;20049;-81
2022/06/17 06:07:23;;;;;;;;;;;;;;;;;;2065965;28;20043;-82
2022/06/17 06:08:24;;;;;;;;;;;;;;;;;;2065833;28;20008;-82
2022/06/17 06:09:26;;;;;;;;;;;;;;;;;;2065977;28;19914;-82
2022/06/17 06:10:26;;;;;;;;;;;;;;;;;;2066455;28;19918;-82
2022/06/17 06:11:27;;;;;;;;;;;;;;;;;;2066433;28;20343;-81
2022/06/17 06:12:53;;;;;;;;;;;;;;;;;;2066374;28;19935;-82
2022/06/17 06:13:47;;;;;;;;;;;;;;;;;;2066269;28;20363;-82
2022/06/17 06:14:48;;;;;;;;;;;;;;;;;;2066544;28;19917;-81
2022/06/17 06:15:49;;;;;;;;;;;;;;;;;;2066230;28;19953;-81
2022/06/17 06:16:50;;;;;;;;;;;;;;;;;;2066596;28;19913;-82
2022/06/17 06:17:50;;;;;;;;;;;;;;;;;;2066269;28;19914;-84
2022/06/17 06:18:50;;;;;;;;;;;;;;;;;;2066445;28;19925;-82
2022/06/17 06:19:50;;;;;;;;;;;;;;;;;;2066355;28;20001;-83
2022/06/17 06:20:51;;;;;;;;;;;;;;;;;;2066584;28;19918;-85
2022/06/17 06:21:51;;;;;;;;;;;;;;;;;;2066318;28;19914;-85
2022/06/17 06:22:52;;;;;;;;;;;;;;;;;;2066290;28;19914;-86
2022/06/17 06:23:55;;;;;;;;;;;;;;;;;;2066175;28;20439;-83
2022/06/17 06:24:55;;;;;;;;;;;;;;;;;;2066519;28;19914;-84
2022/06/17 06:25:56;;;;;;;;;;;;;;;;;;2065650;28;20433;-82
2022/06/17 06:26:58;;;;;;;;;;;;;;;;;;2065350;28;20024;-83
2022/06/17 06:27:59;;;;;;;;;;;;;;;;;;2065924;28;19928;-83
2022/06/17 06:29:02;;;;;;;;;;;;;;;;;;2065422;28;19957;-83
2022/06/17 06:30:02;;;;;;;;;;;;;;;;;;2065795;28;20371;-83
2022/06/17 06:31:11;;;;;;;;;;;;;;;;;;2066180;28;19925;-82
2022/06/17 06:32:11;;;;;;;;;;;;;;;;;;2066137;28;20008;-81
2022/06/17 06:33:12;;;;;;;;;;;;;;;;;;2066100;28;19913;-82
2022/06/17 06:34:13;;;;;;;;;;;;;;;;;;2066328;28;20371;-83
2022/06/17 06:35:14;;;;;;;;;;;;;;;;;;2066569;28;19956;-82
2022/06/17 06:36:14;;;;;;;;;;;;;;;;;;2066314;28;20369;-85
2022/06/17 06:37:15;;;;;;;;;;;;;;;;;;2065476;28;19914;-83
2022/06/17 06:38:15;;;;;;;;;;;;;;;;;;2065790;28;19924;-82
2022/06/17 06:39:15;;;;;;;;;;;;;;;;;;2065645;28;19953;-82
2022/06/17 06:40:16;;;;;;;;;;;;;;;;;;2065570;28;19956;-77
2022/06/17 06:41:20;;;;;;;;;;;;;;;;;;2065557;28;20379;-84
2022/06/17 06:42:21;;;;;;;;;;;;;;;;;;2065804;28;19980;-83
2022/06/17 06:43:21;;;;;;;;;;;;;;;;;;2065883;28;19948;-84
2022/06/17 06:44:22;;;;;;;;;;;;;;;;;;2066062;28;19921;-85
2022/06/17 06:45:26;;;;;;;;;;;;;;;;;;2065999;28;20059;-81
2022/06/17 06:46:27;;;;;;;;;;;;;;;;;;2066536;28;19914;-82
2022/06/17 06:47:27;;;;;;;;;;;;;;;;;;2066147;28;20366;-81
2022/06/17 06:48:28;;;;;;;;;;;;;;;;;;2066291;28;19914;-82
2022/06/17 06:49:28;;;;;;;;;;;;;;;;;;2066033;28;19918;-82
2022/06/17 06:50:30;;;;;;;;;;;;;;;;;;2066002;28;19930;-83
2022/06/17 06:51:30;;;;;;;;;;;;;;;;;;2066358;28;19921;-84
2022/06/17 06:52:30;;;;;;;;;;;;;;;;;;2066084;28;20362;-84
2022/06/17 06:53:30;;;;;;;;;;;;;;;;;;2065875;28;19918;-82
2022/06/17 06:54:31;;;;;;;;;;;;;;;;;;2065945;28;19937;-81
2022/06/17 06:55:34;;;;;;;;;;;;;;;;;;2065127;28;20358;-84
2022/06/17 06:56:34;;;;;;;;;;;;;;;;;;2065429;28;19952;-82
2022/06/17 06:57:34;;;;;;;;;;;;;;;;;;2065667;28;19968;-81
2022/06/17 06:58:35;;;;;;;;;;;;;;;;;;2065940;28;20004;-81
2022/06/17 06:59:36;;;;;;;;;;;;;;;;;;2066094;28;19929;-81
2022/06/17 07:00:37;;;;;;;;;;;;;;;;;;2065290;28;19977;-81
2022/06/17 07:01:38;;;;;;;;;;;;;;;;;;2065577;28;19913;-81
2022/06/17 07:02:38;;;;;;;;;;;;;;;;;;2065881;28;20298;-81
2022/06/17 07:03:38;;;;;;;;;;;;;;;;;;2065963;28;20302;-83
2022/06/17 07:04:39;;;;;;;;;;;;;;;;;;2065851;28;19920;-84
2022/06/17 07:05:43;;;;;;;;;;;;;;;;;;2065296;28;19963;-82
2022/06/17 07:06:43;;;;;;;;;;;;;;;;;;2065363;28;19913;-84
2022/06/17 07:07:44;;;;;;;;;;;;;;;;;;2065756;28;20430;-84
2022/06/17 07:08:47;;;;;;;;;;;;;;;;;;2065380;28;19914;-84
2022/06/17 07:09:47;;;;;;;;;;;;;;;;;;2065559;28;19925;-85
2022/06/17 07:10:48;;;;;;;;;;;;;;;;;;2065913;28;20367;-84
2022/06/17 07:11:49;;;;;;;;;;;;;;;;;;2065664;28;20027;-83
2022/06/17 07:12:49;;;;;;;;;;;;;;;;;;2065544;28;19956;-85
2022/06/17 07:13:52;;;;;;;;;;;;;;;;;;2065727;28;20433;-84